Terminal Aerodrome Forecast
Issued by NWS

Home | Current Version | Previous Version | Text Only | Print | Product List | Glossary On
Versions: 1 2 3 4 5 6 7 8 9 10 11 12 13 14 15 16 17 18 19
441
FTUS43 KEAX 181444 AAA
TAFSTJ
TAF AMD
KSTJ 181444Z 1815/1912 15008KT P6SM OVC008
     FM181600 15008KT 6SM -RA VCTS SCT010CB BKN015
      TEMPO 1816/1820 3SM -TSRA OVC010CB
     FM182100 17008KT P6SM BKN035=

USA.gov is the U.S. government's official web portal to all federal, state and local government web resources and services.